Image
Image
Image
Image
Image
Image
Image
Image
Image
Image
Image
Image
Image
City Time Now High Low DP Feels RH% Vsby Pressure Ceiling Direction Speed Gust Precip
Algona
VFR
12:45AM 57° 57° 57° 55° 57° 94
%
10
mi
1011.2
mb
7000
ft
ENE 12
mph
0.00"
KAXA 180545Z AUTO 06010KT 10SM FEW050 OVC070 14/13 A2986 RMK A01
Ankeny
VFR
12:45AM 63° 63° 63° 52° 63° 68
%
10
mi
1009.8
mb
10000
ft
SSE 5
mph
0.00"
KIKV 180545Z AUTO 15004KT 10SM FEW031 OVC100 17/11 A2982 RMK AO2
Atlantic
VFR
12:45AM 63° 63° 63° 63° 63° 100
%
10
mi
1008.5
mb
9000
ft
NNE 3
mph
0.00"
KAIO 180545Z AUTO 03003KT 10SM SCT080 BKN090 17/17 A2978 RMK AO2
Audubon
VFR
12:45AM 63° 63° 61° 57° 63° 82
%
10
mi
1009.1
mb
8000
ft
None Calm 0.00"
KADU 180545Z AUTO 00000KT 10SM OVC080 17/14 A2980 RMK AO2 PWINO
Ames
VFR
11:53PM 60° 73° 52° 47° 60° 62
%
10
mi
1010.2
mb
None E 5
mph
0.02"
KAMW 180453Z AUTO 09004KT 10SM FEW120 16/08 A2983 RMK AO2 SLP094 T01560083
Boone
VFR
12:45AM 59° 59° 57° 52° 59° 77
%
10
mi
1010.2
mb
8000
ft
ESE 8
mph
0.00"
KBNW 180545Z AUTO 12007KT 10SM OVC080 15/11 A2983 RMK AO2
Burlington
VFR
11:53PM 64° 82° 51° 61° 64° 90
%
10
mi
1012.2
mb
9000
ft
E 5
mph
0.20"
KBRL 180453Z AUTO 10004KT 10SM SCT060 SCT075 BKN090 18/16 A2989 RMK AO2 SLP117 T01780161
Carroll
VFR
12:45AM 59° 59° 57° 57° 59° 94
%
10
mi
1009.1
mb
6500
ft
NE 7
mph
0.00"
KCIN 180545Z AUTO 05006KT 10SM OVC065 15/14 A2980 RMK AO2
Cedar Rapids
VFR
11:52PM 61° 73° 48° 48° 61° 62
%
10
mi
1011.9
mb
None ESE 16
mph
0.00"
KCID 180452Z AUTO 12014KT 10SM FEW040 16/09 A2988 RMK AO2 SLP113 T01610089
Chariton
VFR
12:45AM 61° 61° 61° 61° 61° 100
%
10
mi
1009.1
mb
10000
ft
E 8
mph
0.00"
KCNC 180545Z AUTO 10007KT 10SM BKN100 16/16 A2980 RMK AO2
Charles City
VFR
12:50AM 55° 55° 55° 54° 55° 94
%
10
mi
1012.2
mb
6500
ft
ENE 14
mph
0.00"
KCCY 180550Z AUTO 07012KT 10SM OVC065 13/12 A2989 RMK AO2
Clarinda
MVFR
12:45AM 68° 68° 64° 66° 68° 94
%
10
mi
1008.5
mb
2400
ft
ESE 8
mph
18
mph
0.00"
KICL 180545Z AUTO 11007G16KT 10SM BKN024 BKN050 OVC090 20/19 A2978 RMK AO2
Clarion
VFR
12:45AM 55° 61° 55° 55° 55° 100
%
10
mi
1011.2
mb
8500
ft
ENE 13
mph
0.00"
KCAV 180545Z AUTO 07011KT 10SM SCT028 OVC085 13/13 A2986 RMK A01
Clinton
VFR
11:56PM 58° 72° 48° 46° 58° 64
%
10
mi
1013.9
mb
11000
ft
ESE 16
mph
0.03"
KCWI 180456Z AUTO 12014KT 10SM BKN110 14/08 A2994 RMK AO2 RAE08 SLP141 P0000 T01440078
Council Bluffs
VFR
12:45AM 64° 64° 63° 64° 64° 100
%
9
mi
1007.8
mb
7000
ft
SE 10
mph
17
mph
0.00"
KCBF 180545Z AUTO 13009G15KT 9SM FEW025 SCT055 BKN070 18/18 A2976 RMK AO2
Creston
VFR
12:45AM 63° 63° 63° 63° 63° 100
%
10
mi
1009.1
mb
None ENE 10
mph
0.00"
KCSQ 180545Z AUTO 07009KT 10SM FEW120 17/17 A2980 RMK AO2
Centerville
VFR
12:35AM 61° 61° 61° 61° 61° 100
%
10
mi
1010.5
mb
None None Calm 0.00"
KTVK 180535Z AUTO 00000KT 10SM CLR 16/16 A2984 RMK AO2
Cherokee
VFR
12:45AM 59° 59° 58° 50° 59° 72
%
10
mi
1010.2
mb
5000
ft
NNE 7
mph
0.00"
KCKP 180545Z AUTO 03006KT 10SM OVC050 15/10 A2983 RMK AO2 LTG DSNT S AND SW T01510100
Decorah
VFR
12:45AM 54° 55° 54° 54° 54° 100
%
5
mi
1013.9
mb
6000
ft
E 8
mph
0.00"
KDEH 180545Z AUTO 09007KT 5SM -RA FEW004 BKN060 OVC070 12/12 A2994 RMK AO2
Denison
VFR
12:45AM 61° 61° 61° 61° 61° 100
%
10
mi
1009.1
mb
6000
ft
ENE 7
mph
0.00"
KDNS 180545Z AUTO 06006KT 10SM BKN060 BKN075 BKN120 16/16 A2980 RMK AO2
Dubuque
VFR
11:53PM 60° 66° 47° 45° 60° 57
%
10
mi
1013.5
mb
7500
ft
SSE 14
mph
0.00"
KDBQ 180453Z AUTO 15012KT 10SM BKN075 OVC110 16/07 A2993 RMK AO2 SLP133 T01560072
Des Moines
VFR
11:54PM 63° 76° 60° 55° 63° 75
%
10
mi
1009.5
mb
23000
ft
E 7
mph
0.01"
KDSM 180454Z 10006KT 10SM FEW060 SCT095 BKN230 17/13 A2981 RMK AO2 SLP090 OCNL LTGICCG DSNT SW CB DSNT SW T01720128
Estherville
VFR
11:52PM 56° 64° 51° 52° 56° 87
%
10
mi
1012.2
mb
6500
ft
ENE 13
mph
0.10"
KEST 180452Z AUTO 06011KT 10SM BKN065 OVC085 13/11 A2989 RMK AO2 SLP123 T01330111
Fairfield
VFR
12:45AM 61° 61° 61° 61° 61° 100
%
10
mi
1010.2
mb
None ESE 9
mph
0.00"
KFFL 180545Z AUTO 11008KT 10SM CLR 16/16 A2983 RMK A01
Fort Dodge
VFR
11:56PM 56° 71° 51° 48° 56° 75
%
10
mi
1010.8
mb
None ENE 8
mph
0.04"
KFOD 180456Z AUTO 07007KT 10SM SCT120 13/09 A2985 RMK AO2 SLP120 T01330089 402170106
Fort Madison 12:45AM 64° 64° 64° 63° 64° 94
%
10
mi
1010.5
mb
E 5
mph
0.00"
KFSW 180545Z AUTO 09004KT 10SM 18/17 A2984 RMK AO2
Forest City
VFR
12:45AM 54° 55° 54° 50° 54° 88
%
10
mi
1012.5
mb
5500
ft
ENE 3
mph
0.00"
KFXY 180545Z AUTO 06003KT 10SM SCT043 OVC055 12/10 A2990 RMK AO2 P0001
Grinnell
VFR
12:45AM 64° 64° 64° 57° 64° 78
%
10
mi
1010.5
mb
None ESE 8
mph
0.00"
KGGI 180545Z AUTO 12007KT 10SM SCT037 SCT110 18/14 A2984 RMK AO2 T01770139
Harlan
VFR
12:45AM 63° 63° 63° 63° 63° 100
%
8
mi
1008.5
mb
7000
ft
NE 5
mph
0.00"
KHNR 180545Z AUTO 05004KT 8SM BKN070 OVC080 17/17 A2978 RMK A01
Hampton
VFR
12:45AM 55° 59° 55° 50° 55° 82
%
10
mi
1011.5
mb
10000
ft
NE 10
mph
0.00"
KHPT 180545Z AUTO 05009KT 10SM SCT050 BKN100 OVC120 13/10 A2987 RMK AO2
Independence
VFR
12:45AM 59° 59° 56° 48° 59° 66
%
10
mi
1011.5
mb
None SE 15
mph
0.00"
KIIB 180545Z AUTO 13013KT 10SM SCT040 15/09 A2987 RMK AO2 T01500086
Iowa City
VFR
11:52PM 61° 75° 50° 48° 61° 62
%
10
mi
1012.5
mb
None ESE 7
mph
0.02"
KIOW 180452Z AUTO 12006KT 10SM SCT050 16/09 A2990 RMK AO2 SLP123 T01610089
Iowa Falls
VFR
12:45AM 59° 61° 59° 48° 59° 66
%
10
mi
1011.5
mb
7500
ft
NNE 9
mph
0.00"
KIFA 180545Z AUTO 03008KT 10SM BKN075 BKN095 BKN120 15/09 A2987 RMK AO2 T01500087
Keokuk
VFR
12:45AM 63° 64° 63° 63° 63° 100
%
10
mi
1010.5
mb
4000
ft
E 5
mph
0.00"
KEOK 180545Z AUTO 08004KT 10SM OVC040 17/17 A2984 RMK A01
Knoxville
VFR
12:45AM 61° 61° 61° 55° 61° 82
%
10
mi
1009.8
mb
9500
ft
ESE 6
mph
0.00"
KOXV 180545Z AUTO 12005KT 10SM BKN095 16/13 A2982 RMK AO2
Lamoni
VFR
11:53PM 61° 82° 57° 60° 61° 97
%
10
mi
1009.5
mb
None NE 5
mph
0.70"
KLWD 180453Z AUTO 05004KT 10SM CLR 16/16 A2981 RMK AO2 RAE06 SLP089 P0001 T01610156
Le Mars
VFR
12:45AM 57° 59° 57° 54° 57° 88
%
10
mi
1009.8
mb
5000
ft
N 7
mph
0.00"
KLRJ 180545Z AUTO 01006KT 10SM BKN050 14/12 A2982 RMK AO2
Marshalltown
VFR
11:53PM 59° 73° 47° 46° 59° 62
%
10
mi
1010.8
mb
10000
ft
E 10
mph
0.00"
KMIW 180453Z AUTO 10009KT 10SM OVC100 15/08 A2985 RMK AO2 SLP103 T01500078
Mason City
VFR
11:53PM 55° 62° 50° 50° 55° 83
%
10
mi
1012.9
mb
6500
ft
ENE 13
mph
0.03"
KMCW 180453Z AUTO 07011KT 10SM OVC065 13/10 A2991 RMK AO2 SLP124 T01280100
Monticello
VFR
12:45AM 59° 61° 59° 48° 59° 67
%
10
mi
1011.9
mb
None ESE 15
mph
22
mph
0.00"
KMXO 180545Z AUTO 12013G19KT 10SM CLR 15/09 A2988 RMK AO2
Mount Pleasant
VFR
12:40AM 61° 61° 61° 61° 61° 100
%
10
mi
1010.8
mb
4200
ft
E 6
mph
0.00"
KMPZ 180540Z AUTO 10005KT 10SM OVC042 16/16 A2985 RMK AO2
Muscatine
VFR
12:45AM 63° 63° 63° 50° 63° 63
%
10
mi
1011.5
mb
5500
ft
SE 8
mph
15
mph
0.00"
KMUT 180545Z AUTO 13007G13KT 10SM FEW039 SCT045 BKN055 17/10 A2987 RMK AO2
Newton 12:00AM 63° 63° 63° 48° 63° 59
%
1011.2
mb
ESE 9
mph
0.00"
KTNU 180500Z AUTO 11008KT 17/09 A2986 RMK A01
Oelwein
VFR
12:45AM 59° 59° 57° 45° 59° 59
%
10
mi
1012.5
mb
11000
ft
ENE 9
mph
0.00"
KOLZ 180545Z AUTO 07008KT 10SM SCT041 SCT090 BKN110 15/07 A2990 RMK A01
Ottumwa
VFR
11:53PM 61° 79° 51° 60° 61° 97
%
10
mi
1010.5
mb
None ESE 8
mph
0.05"
KOTM 180453Z AUTO 12007KT 10SM FEW042 16/16 A2984 RMK AO2 SLP100 T01610156
Osceola
VFR
12:35AM 62° 62° 62° 61° 62° 97
%
10
mi
1009.5
mb
None E 6
mph
0.00"
KI75 180535Z AUTO 08005KT 10SM CLR 17/16 A2981 RMK AO2 T01660161
Oskaloosa
VFR
12:45AM 64° 64° 64° 61° 64° 90
%
10
mi
1009.8
mb
None ESE 10
mph
0.00"
KOOA 180545Z AUTO 12009KT 10SM CLR 18/16 A2982 RMK AO2 T01760160
Pella
VFR
12:40AM 60° 60° 60° 55° 60° 81
%
10
mi
1010.2
mb
None ESE 6
mph
0.00"
KPEA 180540Z AUTO 11005KT 10SM SCT095 16/12 A2983 RMK AO2 T01580125
Perry
VFR
12:45AM 61° 62° 61° 55° 61° 79
%
10
mi
1009.1
mb
8500
ft
E 6
mph
0.00"
KPRO 180545Z AUTO 10005KT 10SM BKN085 OVC110 16/13 A2980 RMK AO2 T01610125
Quad Cities
VFR
11:52PM 61° 72° 49° 49° 61° 64
%
10
mi
1013.9
mb
9500
ft
SE 13
mph
0.05"
KDVN 180452Z AUTO 13011KT 10SM BKN095 OVC120 16/09 A2994 RMK AO2 SLP133 T01610094
Red Oak
VFR
12:45AM 66° 68° 64° 64° 66° 94
%
9
mi
1008.5
mb
7500
ft
ENE 10
mph
16
mph
0.00"
KRDK 180545Z AUTO 06009G14KT 9SM -RA FEW004 FEW036 OVC075 19/18 A2978 RMK AO2
Sheldon
VFR
12:45AM 57° 59° 57° 54° 57° 88
%
10
mi
1010.2
mb
4900
ft
ENE 10
mph
0.00"
KSHL 180545Z AUTO 06009KT 10SM OVC049 14/12 A2983 RMK AO2
Shenandoah
VFR
12:45AM 68° 68° 66° 66° 68° 94
%
10
mi
1006.8
mb
9000
ft
SE 9
mph
0.00"
KSDA 180545Z AUTO 13008KT 10SM FEW070 OVC090 20/19 A2973 RMK AO2
Sioux City
VFR
11:52PM 62° 68° 58° 57° 62° 83
%
10
mi
1010.5
mb
5500
ft
NNE 7
mph
0.10"
KSUX 180452Z AUTO 02006KT 10SM BKN055 BKN070 BKN085 17/14 A2984 RMK AO2 SLP102 T01670139
Spencer
VFR
11:53PM 59° 67° 53° 51° 59° 75
%
10
mi
1011.9
mb
None ENE 13
mph
0.04"
KSPW 180453Z AUTO 06011KT 10SM SCT110 15/11 A2988 RMK AO2 SLP114 T01500106
Sioux County
VFR
12:35AM 57° 57° 57° 50° 57° 77
%
10
mi
1010.5
mb
4600
ft
ENE 6
mph
0.00"
KSXK 180535Z AUTO 06005KT 10SM OVC046 14/10 A2984 RMK AO2
Storm Lake
VFR
12:45AM 57° 59° 57° 50° 57° 77
%
9
mi
1010.2
mb
6000
ft
ENE 9
mph
0.00"
KSLB 180545Z AUTO 06008KT 9SM BKN060 BKN070 OVC085 14/10 A2983 RMK AO2
Vinton
VFR
12:50AM 62° 64° 62° 46° 62° 55
%
10
mi
1010.8
mb
None ESE 9
mph
0.00"
KVTI 180550Z AUTO 12008KT 10SM SCT041 17/08 A2985 RMK AO2 T01670076 10216 20167 402450082
Washington
VFR
12:45AM 59° 61° 59° 55° 59° 88
%
10
mi
1010.2
mb
None ESE 9
mph
0.00"
KAWG 180545Z AUTO 12008KT 10SM CLR 15/13 A2983 RMK AO2
Waterloo
VFR
11:54PM 62° 69° 47° 44° 62° 52
%
10
mi
1011.2
mb
9000
ft
ESE 12
mph
0.00"
KALO 180454Z AUTO 12010KT 10SM BKN090 17/07 A2986 RMK AO2 SLP109 T01670067
Webster City
VFR
12:35AM 57° 57° 55° 48° 57° 72
%
10
mi
1010.2
mb
7000
ft
NE 9
mph
0.00"
KEBS 180535Z AUTO 04008KT 10SM BKN070 BKN095 14/09 A2983 RMK AO2
Click here to show this page without METARs included